Gilleleje, Denmark
Current Conditions -  °F | °C
As of 3:20 PM on Saturday 22 Nov 2014 (Local Time) from ESTA Reporting Station
Broken Clouds Broken Clouds  
Wind Chill: 37°   Ceiling: 14000
Heat Index: 41°   Visibility: 6mi
Dew Point: 37°   Wind: 6mph
Humidity: 87%   Direction: 90°E
Pressure: 30.27"   Gusts: NA
Location:  56.12°N, 12.31°E
Report Text: ESTA 221420Z 09005KT 9999 FEW015 BKN140 05/03 Q1025
Loading
Personal Weather Stations






























Interactive Weather Map New forecast layout! Learn more

10-Day Weather Forecast

Advertisements
Track Severe Weather on mobile